createdAt,value
2018-02-09T15:48:24.995Z,34.78
2018-02-09T15:51:30.431Z,36.33
2018-02-09T15:53:58.026Z,38.97
2018-02-09T15:56:34.042Z,34.60
2018-02-09T15:59:01.737Z,39.13
2018-02-09T16:01:29.338Z,35.93
2018-02-09T16:03:57.671Z,35.97
2018-02-09T16:06:25.269Z,39.27
2018-02-09T16:08:52.843Z,36.57
2018-02-09T16:11:20.433Z,37.50
2018-02-09T16:13:48.030Z,36.70
2018-02-09T16:16:15.661Z,39.37
2018-02-09T16:18:43.303Z,36.90
2018-02-09T16:21:11.102Z,38.33
2018-02-09T16:23:39.574Z,35.30
2018-02-09T16:26:07.645Z,39.03
2018-02-09T16:28:35.218Z,36.60
2018-02-09T16:31:05.816Z,40.70
2018-02-09T16:33:33.572Z,34.93
2018-02-09T16:36:01.383Z,40.43
2018-02-09T16:38:28.982Z,40.40
2018-02-09T16:40:56.558Z,38.27
2018-02-09T16:43:25.431Z,38.07
2018-02-09T16:45:53.773Z,40.00
2018-02-09T16:48:21.370Z,37.50
2018-02-09T16:50:48.974Z,39.07
2018-02-09T16:53:16.554Z,39.00
2018-02-09T16:55:44.153Z,41.17
2018-02-09T16:58:11.728Z,41.10
2018-02-09T17:00:39.326Z,40.40
2018-02-09T17:03:07.355Z,42.63
2018-02-09T17:05:35.693Z,42.53
2018-02-09T17:08:03.294Z,41.93
2018-02-09T17:10:30.866Z,40.97
2018-02-09T17:12:58.465Z,39.33
2018-02-09T17:15:26.062Z,43.70
2018-02-09T17:17:53.637Z,41.73
2018-02-09T17:20:21.234Z,38.30
2018-02-09T17:22:48.833Z,40.73
2018-02-09T17:25:16.650Z,39.07
2018-02-09T17:27:45.015Z,41.07
2018-02-09T17:30:12.662Z,38.73
2018-02-09T17:38:28.609Z,39.17
2018-02-09T17:40:56.359Z,40.73
2018-02-09T17:46:18.811Z,40.43
2018-02-09T17:51:59.676Z,44.20
2018-02-09T17:54:28.752Z,41.23
2018-02-09T17:56:56.386Z,40.47
2018-02-09T17:59:24.821Z,39.77
2018-02-09T18:01:52.421Z,40.27
2018-02-09T18:04:20.752Z,46.67
2018-02-09T18:06:48.351Z,38.77
2018-02-09T18:09:16.767Z,43.07
2018-02-09T18:11:45.463Z,42.00
2018-02-09T18:14:13.867Z,43.37
2018-02-09T18:16:42.231Z,42.43
2018-02-09T18:19:10.067Z,46.10
2018-02-09T18:24:52.434Z,46.77
2018-02-09T18:27:20.055Z,44.70
2018-02-09T18:29:49.215Z,41.60
2018-02-09T18:32:16.952Z,44.43
2018-02-09T18:34:45.427Z,43.77
2018-02-09T18:37:13.317Z,43.93
2018-02-09T18:39:40.995Z,43.20
2018-02-09T18:42:08.635Z,40.23
2018-02-09T18:44:37.007Z,43.73
2018-02-09T18:47:04.594Z,45.73
2018-02-09T18:49:32.732Z,44.57
2018-02-09T18:52:01.124Z,46.03
2018-02-09T18:54:52.569Z,42.57
2018-02-09T18:57:20.201Z,40.43
2018-02-09T18:59:48.066Z,41.33
2018-02-09T19:05:27.846Z,38.80
2018-02-09T19:07:55.483Z,43.97
2018-02-09T19:10:23.053Z,40.60
2018-02-09T19:12:50.875Z,42.33
2018-02-09T19:18:25.491Z,41.60
2018-02-09T19:20:53.907Z,42.67
2018-02-09T19:23:21.474Z,44.73
2018-02-09T19:31:39.610Z,46.27
2018-02-09T19:34:07.274Z,39.40
2018-02-09T19:36:34.847Z,42.00
2018-02-09T19:39:08.996Z,42.23
2018-02-09T19:41:36.571Z,43.37
2018-02-09T19:44:04.171Z,45.57
2018-02-09T19:46:31.779Z,40.63
2018-02-09T19:49:02.667Z,38.80
2018-02-09T19:51:30.272Z,42.10
2018-02-09T19:53:58.606Z,43.40
2018-02-09T19:56:26.202Z,41.50
2018-02-09T19:58:53.881Z,41.47
2018-02-09T20:01:21.478Z,42.20
2018-02-09T20:03:49.086Z,43.73
2018-02-09T20:06:16.653Z,40.70
2018-02-09T20:08:44.250Z,45.97
2018-02-09T20:11:12.540Z,41.23
2018-02-09T20:13:40.289Z,44.00
2018-02-09T20:16:07.970Z,46.33
2018-02-09T20:18:35.999Z,47.63
2018-02-09T20:21:05.968Z,45.63
2018-02-09T20:23:34.711Z,46.47
2018-02-09T20:26:02.615Z,45.57
2018-02-09T20:28:32.478Z,46.73
2018-02-09T20:31:05.659Z,46.23
2018-02-09T20:33:35.749Z,46.13
2018-02-09T20:36:05.230Z,46.53
2018-02-09T20:38:33.830Z,44.73
2018-02-09T20:41:02.286Z,45.23
2018-02-09T20:43:32.345Z,51.37
2018-02-09T20:46:05.907Z,43.03
2018-02-09T20:48:38.055Z,48.63
2018-02-09T20:51:12.126Z,49.03
2018-02-09T20:53:41.843Z,45.43
2018-02-09T20:56:17.943Z,45.80
2018-02-09T20:58:47.011Z,47.67
2018-02-09T21:01:20.138Z,46.03
2018-02-09T21:03:48.740Z,42.47
2018-02-09T21:06:17.513Z,45.67
2018-02-09T21:08:47.891Z,45.70
2018-02-09T21:11:23.476Z,45.37
2018-02-09T21:13:55.905Z,41.67
2018-02-09T21:16:30.536Z,43.23
2018-02-09T21:19:01.172Z,50.73
2018-02-09T21:24:10.044Z,42.57
2018-02-09T21:26:38.747Z,43.90
2018-02-09T21:37:53.918Z,46.20
2018-02-09T21:40:22.366Z,42.33
2018-02-09T21:42:50.049Z,46.40
2018-02-09T21:45:19.581Z,49.77
2018-02-09T21:53:52.013Z,48.57
2018-02-09T21:56:19.650Z,43.10
2018-02-09T21:58:47.331Z,44.67
2018-02-09T22:01:14.958Z,44.60
2018-02-09T22:03:44.315Z,49.13
2018-02-09T22:06:13.486Z,46.17
2018-02-09T22:08:41.166Z,47.70
2018-02-09T22:14:02.319Z,47.83
2018-02-09T22:16:29.925Z,47.90
2018-02-09T22:18:57.602Z,45.20
2018-02-09T22:21:25.452Z,46.80
2018-02-09T22:23:53.083Z,49.63
2018-02-09T22:26:20.707Z,46.57
2018-02-09T22:28:48.343Z,45.87
2018-02-09T22:31:15.959Z,47.73
2018-02-09T22:33:44.514Z,44.50
2018-02-09T22:36:12.090Z,46.37
2018-02-09T22:38:39.710Z,47.63
2018-02-09T22:41:07.311Z,53.27
2018-02-09T22:43:34.885Z,44.00
2018-02-09T22:46:02.477Z,45.87
2018-02-09T22:48:30.050Z,43.40
2018-02-09T22:50:57.683Z,47.83
2018-02-09T22:53:26.042Z,46.83
2018-02-09T22:55:53.619Z,45.37
2018-02-09T22:58:21.235Z,48.13
2018-02-09T23:00:48.809Z,47.90
2018-02-09T23:03:16.402Z,43.37
2018-02-09T23:05:44.395Z,43.60
2018-02-09T23:08:11.982Z,48.53
2018-02-09T23:10:40.431Z,42.90
2018-02-09T23:13:08.243Z,44.10
2018-02-09T23:15:37.782Z,44.70
2018-02-09T23:18:05.472Z,50.00
2018-02-09T23:20:33.128Z,47.07
2018-02-09T23:23:00.787Z,41.63
2018-02-09T23:25:28.406Z,45.93
2018-02-09T23:27:56.069Z,44.60
2018-02-09T23:30:23.734Z,45.70
2018-02-09T23:32:52.132Z,43.23
2018-02-09T23:35:20.579Z,43.37
2018-02-09T23:37:49.023Z,42.30
2018-02-09T23:40:17.493Z,46.33
2018-02-09T23:42:45.168Z,45.47
2018-02-09T23:45:12.807Z,42.10
2018-02-09T23:47:40.459Z,47.03
2018-02-09T23:50:08.088Z,43.93
2018-02-09T23:52:35.738Z,44.33
2018-02-09T23:55:03.416Z,44.93
2018-02-09T23:57:31.044Z,46.70
2018-02-09T23:59:58.725Z,45.47
